sensor_id;sensor_type;location;lat;lon;timestamp;pressure;altitude;pressure_sealevel;temperature;humidity
25510;BME280;13413;52.336;21.200;2023-05-19T00:02:54;101654.72;;;13.88;65.31
25510;BME280;13413;52.336;21.200;2023-05-19T00:05:48;101652.73;;;13.88;65.28
25510;BME280;13413;52.336;21.200;2023-05-19T00:08:45;101651.23;;;13.89;65.48
25510;BME280;13413;52.336;21.200;2023-05-19T00:11:40;101648.17;;;13.88;65.62
25510;BME280;13413;52.336;21.200;2023-05-19T00:14:35;101647.90;;;13.85;65.84
25510;BME280;13413;52.336;21.200;2023-05-19T00:17:46;101648.17;;;13.83;66.00
25510;BME280;13413;52.336;21.200;2023-05-19T00:20:40;101648.44;;;13.82;66.08
25510;BME280;13413;52.336;21.200;2023-05-19T00:23:34;101649.52;;;13.79;66.16
25510;BME280;13413;52.336;21.200;2023-05-19T00:26:31;101645.66;;;13.72;66.39
25510;BME280;13413;52.336;21.200;2023-05-19T00:29:25;101645.74;;;13.69;66.58
25510;BME280;13413;52.336;21.200;2023-05-19T00:32:19;101643.95;;;13.65;66.68
25510;BME280;13413;52.336;21.200;2023-05-19T00:35:11;101639.54;;;13.61;66.80
25510;BME280;13413;52.336;21.200;2023-05-19T00:44:07;101642.67;;;13.64;67.04
25510;BME280;13413;52.336;21.200;2023-05-19T00:47:01;101638.79;;;13.61;67.12
25510;BME280;13413;52.336;21.200;2023-05-19T00:49:55;101635.29;;;13.61;67.46
25510;BME280;13413;52.336;21.200;2023-05-19T00:52:49;101635.80;;;13.60;67.49
25510;BME280;13413;52.336;21.200;2023-05-19T00:55:43;101634.54;;;13.58;67.63
25510;BME280;13413;52.336;21.200;2023-05-19T00:58:39;101633.45;;;13.55;67.67
25510;BME280;13413;52.336;21.200;2023-05-19T01:01:33;101630.13;;;13.53;67.85
25510;BME280;13413;52.336;21.200;2023-05-19T01:04:27;101631.58;;;13.51;67.99
25510;BME280;13413;52.336;21.200;2023-05-19T01:07:21;101629.88;;;13.50;68.07
25510;BME280;13413;52.336;21.200;2023-05-19T01:10:15;101626.88;;;13.49;68.08
25510;BME280;13413;52.336;21.200;2023-05-19T01:13:10;101630.03;;;13.49;68.31
25510;BME280;13413;52.336;21.200;2023-05-19T01:16:09;101628.73;;;13.46;68.41
25510;BME280;13413;52.336;21.200;2023-05-19T01:19:17;101623.64;;;13.45;68.38
25510;BME280;13413;52.336;21.200;2023-05-19T01:22:26;101627.04;;;13.47;68.46
25510;BME280;13413;52.336;21.200;2023-05-19T01:25:41;101625.89;;;13.44;68.58
25510;BME280;13413;52.336;21.200;2023-05-19T01:29:00;101620.64;;;13.42;68.87
25510;BME280;13413;52.336;21.200;2023-05-19T01:31:59;101620.95;;;13.40;68.65
25510;BME280;13413;52.336;21.200;2023-05-19T01:34:54;101621.80;;;13.41;68.89
25510;BME280;13413;52.336;21.200;2023-05-19T01:37:49;101617.52;;;13.39;69.09
25510;BME280;13413;52.336;21.200;2023-05-19T01:40:44;101612.69;;;13.36;69.33
25510;BME280;13413;52.336;21.200;2023-05-19T01:43:42;101608.41;;;13.33;69.53
25510;BME280;13413;52.336;21.200;2023-05-19T01:46:38;101610.38;;;13.31;69.63
25510;BME280;13413;52.336;21.200;2023-05-19T01:49:32;101607.47;;;13.29;69.78
25510;BME280;13413;52.336;21.200;2023-05-19T01:52:26;101609.23;;;13.26;69.88
25510;BME280;13413;52.336;21.200;2023-05-19T01:55:21;101610.19;;;13.25;69.88
25510;BME280;13413;52.336;21.200;2023-05-19T01:58:19;101611.40;;;13.25;70.00
25510;BME280;13413;52.336;21.200;2023-05-19T02:01:19;101610.45;;;13.24;70.07
25510;BME280;13413;52.336;21.200;2023-05-19T02:04:20;101615.27;;;13.24;69.99
25510;BME280;13413;52.336;21.200;2023-05-19T02:07:28;101613.51;;;13.24;70.15
25510;BME280;13413;52.336;21.200;2023-05-19T02:10:26;101605.11;;;13.23;70.18
25510;BME280;13413;52.336;21.200;2023-05-19T02:13:25;101601.75;;;13.21;70.14
25510;BME280;13413;52.336;21.200;2023-05-19T02:16:27;101601.60;;;13.19;70.22
25510;BME280;13413;52.336;21.200;2023-05-19T02:19:27;101600.91;;;13.19;70.23
25510;BME280;13413;52.336;21.200;2023-05-19T02:22:21;101600.10;;;13.16;70.37
25510;BME280;13413;52.336;21.200;2023-05-19T02:25:15;101600.94;;;13.15;70.46
25510;BME280;13413;52.336;21.200;2023-05-19T02:28:09;101599.70;;;13.13;70.46
25510;BME280;13413;52.336;21.200;2023-05-19T02:31:05;101596.91;;;13.11;70.56
25510;BME280;13413;52.336;21.200;2023-05-19T02:33:59;101591.31;;;13.10;70.58
25510;BME280;13413;52.336;21.200;2023-05-19T02:36:53;101589.80;;;13.10;70.68
25510;BME280;13413;52.336;21.200;2023-05-19T02:39:48;101593.09;;;13.09;70.76
25510;BME280;13413;52.336;21.200;2023-05-19T02:42:41;101590.70;;;13.08;70.84
25510;BME280;13413;52.336;21.200;2023-05-19T02:45:35;101593.11;;;13.07;70.92
25510;BME280;13413;52.336;21.200;2023-05-19T02:48:29;101592.14;;;13.04;70.90
25510;BME280;13413;52.336;21.200;2023-05-19T02:51:24;101590.60;;;13.04;70.94
25510;BME280;13413;52.336;21.200;2023-05-19T02:54:15;101590.73;;;13.00;71.13
25510;BME280;13413;52.336;21.200;2023-05-19T03:03:22;101596.32;;;12.98;71.22
25510;BME280;13413;52.336;21.200;2023-05-19T03:06:17;101599.88;;;12.96;71.37
25510;BME280;13413;52.336;21.200;2023-05-19T03:09:11;101599.48;;;12.95;71.54
25510;BME280;13413;52.336;21.200;2023-05-19T03:12:05;101600.02;;;12.91;71.61
25510;BME280;13413;52.336;21.200;2023-05-19T03:15:00;101600.10;;;12.89;71.64
25510;BME280;13413;52.336;21.200;2023-05-19T03:17:54;101603.20;;;12.88;71.79
25510;BME280;13413;52.336;21.200;2023-05-19T03:20:47;101600.42;;;12.86;71.75
25510;BME280;13413;52.336;21.200;2023-05-19T03:23:41;101608.45;;;12.84;71.95
25510;BME280;13413;52.336;21.200;2023-05-19T03:26:36;101606.10;;;12.81;72.02
25510;BME280;13413;52.336;21.200;2023-05-19T03:29:30;101609.25;;;12.80;72.14
25510;BME280;13413;52.336;21.200;2023-05-19T03:32:24;101610.48;;;12.75;72.30
25510;BME280;13413;52.336;21.200;2023-05-19T03:35:19;101606.81;;;12.73;72.45
25510;BME280;13413;52.336;21.200;2023-05-19T03:38:14;101610.38;;;12.72;72.52
25510;BME280;13413;52.336;21.200;2023-05-19T03:41:08;101609.63;;;12.75;72.61
25510;BME280;13413;52.336;21.200;2023-05-19T03:44:02;101614.70;;;12.77;72.76
25510;BME280;13413;52.336;21.200;2023-05-19T03:46:56;101614.50;;;12.77;72.71
25510;BME280;13413;52.336;21.200;2023-05-19T03:49:50;101616.56;;;12.79;72.82
25510;BME280;13413;52.336;21.200;2023-05-19T03:52:43;101615.81;;;12.80;72.91
25510;BME280;13413;52.336;21.200;2023-05-19T03:55:38;101614.27;;;12.79;72.91
25510;BME280;13413;52.336;21.200;2023-05-19T03:58:31;101613.88;;;12.80;73.14
25510;BME280;13413;52.336;21.200;2023-05-19T04:01:25;101613.40;;;12.79;73.26
25510;BME280;13413;52.336;21.200;2023-05-19T04:04:20;101611.20;;;12.78;73.38
25510;BME280;13413;52.336;21.200;2023-05-19T04:07:14;101613.09;;;12.75;73.39
25510;BME280;13413;52.336;21.200;2023-05-19T04:10:09;101609.55;;;12.75;73.44
25510;BME280;13413;52.336;21.200;2023-05-19T04:13:03;101609.75;;;12.75;73.67
25510;BME280;13413;52.336;21.200;2023-05-19T04:15:57;101608.96;;;12.76;73.72
25510;BME280;13413;52.336;21.200;2023-05-19T04:18:51;101605.67;;;12.77;73.79
25510;BME280;13413;52.336;21.200;2023-05-19T04:21:45;101606.81;;;12.78;73.75
25510;BME280;13413;52.336;21.200;2023-05-19T04:24:39;101610.77;;;12.81;73.99
25510;BME280;13413;52.336;21.200;2023-05-19T04:27:33;101610.52;;;12.81;73.96
25510;BME280;13413;52.336;21.200;2023-05-19T04:30:27;101608.36;;;12.83;74.10
25510;BME280;13413;52.336;21.200;2023-05-19T04:33:21;101606.33;;;12.82;74.16
25510;BME280;13413;52.336;21.200;2023-05-19T04:36:15;101604.45;;;12.85;74.25
25510;BME280;13413;52.336;21.200;2023-05-19T04:39:09;101607.75;;;12.87;74.35
25510;BME280;13413;52.336;21.200;2023-05-19T04:42:02;101605.38;;;12.86;74.37
25510;BME280;13413;52.336;21.200;2023-05-19T04:44:57;101607.35;;;12.84;74.49
25510;BME280;13413;52.336;21.200;2023-05-19T04:47:50;101608.37;;;12.85;74.40
25510;BME280;13413;52.336;21.200;2023-05-19T04:50:45;101612.29;;;12.88;74.51
25510;BME280;13413;52.336;21.200;2023-05-19T04:53:39;101612.98;;;12.90;74.50
25510;BME280;13413;52.336;21.200;2023-05-19T04:56:33;101606.02;;;12.90;74.61
25510;BME280;13413;52.336;21.200;2023-05-19T04:59:27;101609.06;;;12.88;74.54
25510;BME280;13413;52.336;21.200;2023-05-19T05:02:20;101611.81;;;12.86;74.56
25510;BME280;13413;52.336;21.200;2023-05-19T05:05:15;101618.06;;;12.86;74.66
25510;BME280;13413;52.336;21.200;2023-05-19T05:08:10;101612.00;;;12.84;74.61
25510;BME280;13413;52.336;21.200;2023-05-19T05:11:05;101615.02;;;12.82;74.70
25510;BME280;13413;52.336;21.200;2023-05-19T05:13:58;101614.34;;;12.80;74.65
25510;BME280;13413;52.336;21.200;2023-05-19T05:19:38;101613.73;;;12.81;74.81
25510;BME280;13413;52.336;21.200;2023-05-19T05:22:33;101613.10;;;12.85;74.76
25510;BME280;13413;52.336;21.200;2023-05-19T05:25:28;101612.55;;;12.89;74.82
25510;BME280;13413;52.336;21.200;2023-05-19T05:28:23;101609.17;;;12.86;75.00
25510;BME280;13413;52.336;21.200;2023-05-19T05:31:17;101613.90;;;12.83;74.69
25510;BME280;13413;52.336;21.200;2023-05-19T05:34:11;101612.97;;;12.85;74.90
25510;BME280;13413;52.336;21.200;2023-05-19T05:37:05;101615.96;;;12.87;74.87
25510;BME280;13413;52.336;21.200;2023-05-19T05:39:58;101616.57;;;12.85;74.77
25510;BME280;13413;52.336;21.200;2023-05-19T05:42:53;101616.10;;;12.87;75.04
25510;BME280;13413;52.336;21.200;2023-05-19T05:45:47;101616.66;;;12.90;74.88
25510;BME280;13413;52.336;21.200;2023-05-19T05:48:42;101615.40;;;12.95;74.89
25510;BME280;13413;52.336;21.200;2023-05-19T05:51:38;101618.77;;;12.95;74.83
25510;BME280;13413;52.336;21.200;2023-05-19T05:54:32;101616.11;;;12.95;74.88
25510;BME280;13413;52.336;21.200;2023-05-19T05:57:25;101615.28;;;12.94;74.95
25510;BME280;13413;52.336;21.200;2023-05-19T06:00:20;101612.32;;;12.91;75.11
25510;BME280;13413;52.336;21.200;2023-05-19T06:03:15;101613.70;;;12.91;75.20
25510;BME280;13413;52.336;21.200;2023-05-19T06:06:09;101615.65;;;12.91;75.21
25510;BME280;13413;52.336;21.200;2023-05-19T06:09:03;101613.48;;;12.94;75.29
25510;BME280;13413;52.336;21.200;2023-05-19T06:11:58;101615.68;;;12.93;75.27
25510;BME280;13413;52.336;21.200;2023-05-19T06:14:52;101615.90;;;12.92;75.29
25510;BME280;13413;52.336;21.200;2023-05-19T06:17:46;101620.35;;;12.97;75.31
25510;BME280;13413;52.336;21.200;2023-05-19T06:20:40;101618.04;;;13.03;75.43
25510;BME280;13413;52.336;21.200;2023-05-19T06:23:34;101623.08;;;13.09;75.54
25510;BME280;13413;52.336;21.200;2023-05-19T06:29:21;101624.25;;;13.13;75.27
25510;BME280;13413;52.336;21.200;2023-05-19T06:32:15;101627.76;;;13.19;75.42
25510;BME280;13413;52.336;21.200;2023-05-19T06:35:09;101622.23;;;13.24;75.34
25510;BME280;13413;52.336;21.200;2023-05-19T06:38:05;101621.83;;;13.29;75.35
25510;BME280;13413;52.336;21.200;2023-05-19T06:40:59;101623.59;;;13.34;75.27
25510;BME280;13413;52.336;21.200;2023-05-19T06:43:53;101624.61;;;13.35;75.26
25510;BME280;13413;52.336;21.200;2023-05-19T06:46:47;101626.35;;;13.36;75.34
25510;BME280;13413;52.336;21.200;2023-05-19T06:49:41;101625.84;;;13.34;75.05
25510;BME280;13413;52.336;21.200;2023-05-19T06:52:38;101629.66;;;13.39;75.25
25510;BME280;13413;52.336;21.200;2023-05-19T06:55:32;101624.89;;;13.42;75.16
25510;BME280;13413;52.336;21.200;2023-05-19T06:58:31;101621.13;;;13.42;75.18
25510;BME280;13413;52.336;21.200;2023-05-19T07:01:24;101617.93;;;13.44;75.13
25510;BME280;13413;52.336;21.200;2023-05-19T07:04:18;101615.64;;;13.47;75.10
25510;BME280;13413;52.336;21.200;2023-05-19T07:07:12;101614.28;;;13.48;75.05
25510;BME280;13413;52.336;21.200;2023-05-19T07:10:07;101614.69;;;13.53;75.14
25510;BME280;13413;52.336;21.200;2023-05-19T07:13:01;101617.14;;;13.59;75.02
25510;BME280;13413;52.336;21.200;2023-05-19T07:15:55;101613.08;;;13.63;75.10
25510;BME280;13413;52.336;21.200;2023-05-19T07:18:49;101610.77;;;13.66;74.92
25510;BME280;13413;52.336;21.200;2023-05-19T07:21:43;101612.32;;;13.70;75.09
25510;BME280;13413;52.336;21.200;2023-05-19T07:24:37;101611.42;;;13.74;74.99
25510;BME280;13413;52.336;21.200;2023-05-19T07:27:32;101613.38;;;13.78;74.91
25510;BME280;13413;52.336;21.200;2023-05-19T07:36:04;101607.83;;;13.88;74.52
25510;BME280;13413;52.336;21.200;2023-05-19T07:38:58;101607.95;;;13.86;74.56
25510;BME280;13413;52.336;21.200;2023-05-19T07:41:52;101611.33;;;13.93;74.66
25510;BME280;13413;52.336;21.200;2023-05-19T07:44:46;101611.06;;;14.01;74.68
25510;BME280;13413;52.336;21.200;2023-05-19T07:47:43;101610.50;;;14.04;74.45
25510;BME280;13413;52.336;21.200;2023-05-19T07:50:37;101612.07;;;14.08;74.45
25510;BME280;13413;52.336;21.200;2023-05-19T07:53:31;101611.20;;;14.04;74.02
25510;BME280;13413;52.336;21.200;2023-05-19T07:56:25;101615.03;;;14.02;74.08
25510;BME280;13413;52.336;21.200;2023-05-19T07:59:19;101615.20;;;14.02;74.07
25510;BME280;13413;52.336;21.200;2023-05-19T08:02:13;101619.77;;;13.99;73.82
25510;BME280;13413;52.336;21.200;2023-05-19T08:05:09;101618.10;;;13.95;73.84
25510;BME280;13413;52.336;21.200;2023-05-19T08:08:03;101611.90;;;13.96;73.92
25510;BME280;13413;52.336;21.200;2023-05-19T08:10:57;101611.70;;;14.03;74.07
25510;BME280;13413;52.336;21.200;2023-05-19T08:13:54;101606.62;;;14.10;73.86
25510;BME280;13413;52.336;21.200;2023-05-19T08:16:48;101602.39;;;14.10;73.67
25510;BME280;13413;52.336;21.200;2023-05-19T08:19:42;101604.16;;;14.11;73.77
25510;BME280;13413;52.336;21.200;2023-05-19T08:22:36;101604.42;;;14.12;73.59
25510;BME280;13413;52.336;21.200;2023-05-19T08:25:30;101607.79;;;14.17;73.81
25510;BME280;13413;52.336;21.200;2023-05-19T08:28:24;101610.25;;;14.24;73.80
25510;BME280;13413;52.336;21.200;2023-05-19T08:31:18;101607.08;;;14.28;73.51
25510;BME280;13413;52.336;21.200;2023-05-19T08:34:12;101604.30;;;14.31;73.30
25510;BME280;13413;52.336;21.200;2023-05-19T08:37:06;101606.34;;;14.32;73.15
25510;BME280;13413;52.336;21.200;2023-05-19T08:40:00;101612.38;;;14.34;73.18
25510;BME280;13413;52.336;21.200;2023-05-19T08:42:54;101615.27;;;14.37;73.22
25510;BME280;13413;52.336;21.200;2023-05-19T08:45:48;101612.16;;;14.41;73.08
25510;BME280;13413;52.336;21.200;2023-05-19T08:48:43;101614.66;;;14.41;72.97
25510;BME280;13413;52.336;21.200;2023-05-19T08:51:43;101618.52;;;14.44;72.90
25510;BME280;13413;52.336;21.200;2023-05-19T08:54:44;101613.77;;;14.48;72.96
25510;BME280;13413;52.336;21.200;2023-05-19T08:57:39;101616.14;;;14.50;72.54
25510;BME280;13413;52.336;21.200;2023-05-19T09:00:34;101611.81;;;14.49;72.64
25510;BME280;13413;52.336;21.200;2023-05-19T09:03:28;101612.20;;;14.51;72.78
25510;BME280;13413;52.336;21.200;2023-05-19T09:06:21;101615.66;;;14.55;72.62
25510;BME280;13413;52.336;21.200;2023-05-19T09:09:15;101613.23;;;14.58;72.37
25510;BME280;13413;52.336;21.200;2023-05-19T09:12:09;101609.62;;;14.57;72.18
25510;BME280;13413;52.336;21.200;2023-05-19T09:15:06;101605.64;;;14.61;72.46
25510;BME280;13413;52.336;21.200;2023-05-19T09:18:09;101607.30;;;14.63;72.07
25510;BME280;13413;52.336;21.200;2023-05-19T09:21:03;101607.99;;;14.65;71.84
25510;BME280;13413;52.336;21.200;2023-05-19T09:24:02;101603.48;;;14.69;72.09
25510;BME280;13413;52.336;21.200;2023-05-19T09:29:50;101601.33;;;14.81;72.11
25510;BME280;13413;52.336;21.200;2023-05-19T09:32:44;101597.54;;;14.87;72.02
25510;BME280;13413;52.336;21.200;2023-05-19T09:35:38;101599.58;;;14.91;71.93
25510;BME280;13413;52.336;21.200;2023-05-19T09:38:33;101598.65;;;14.93;71.77
25510;BME280;13413;52.336;21.200;2023-05-19T09:41:27;101599.86;;;14.91;71.63
25510;BME280;13413;52.336;21.200;2023-05-19T09:44:24;101603.34;;;14.90;71.57
25510;BME280;13413;52.336;21.200;2023-05-19T09:47:17;101603.15;;;14.95;71.73
25510;BME280;13413;52.336;21.200;2023-05-19T09:53:05;101600.55;;;15.02;71.26
25510;BME280;13413;52.336;21.200;2023-05-19T09:55:59;101602.86;;;15.05;71.15
25510;BME280;13413;52.336;21.200;2023-05-19T09:58:54;101605.60;;;15.08;70.68
25510;BME280;13413;52.336;21.200;2023-05-19T10:01:48;101603.58;;;15.11;70.91
25510;BME280;13413;52.336;21.200;2023-05-19T10:04:43;101605.23;;;15.20;71.28
25510;BME280;13413;52.336;21.200;2023-05-19T10:07:40;101608.66;;;15.31;71.15
25510;BME280;13413;52.336;21.200;2023-05-19T10:10:34;101603.73;;;15.35;70.74
25510;BME280;13413;52.336;21.200;2023-05-19T10:13:29;101600.69;;;15.34;70.53
25510;BME280;13413;52.336;21.200;2023-05-19T10:16:27;101596.52;;;15.33;70.53
25510;BME280;13413;52.336;21.200;2023-05-19T10:19:23;101602.35;;;15.33;70.33
25510;BME280;13413;52.336;21.200;2023-05-19T10:22:18;101602.59;;;15.34;70.59
25510;BME280;13413;52.336;21.200;2023-05-19T10:25:11;101606.23;;;15.38;70.04
25510;BME280;13413;52.336;21.200;2023-05-19T10:28:10;101599.17;;;15.33;69.95
25510;BME280;13413;52.336;21.200;2023-05-19T10:31:10;101598.98;;;15.35;70.36
25510;BME280;13413;52.336;21.200;2023-05-19T10:34:19;101600.98;;;15.36;69.94
25510;BME280;13413;52.336;21.200;2023-05-19T10:37:23;101601.38;;;15.35;70.03
25510;BME280;13413;52.336;21.200;2023-05-19T10:40:27;101598.71;;;15.36;69.87
25510;BME280;13413;52.336;21.200;2023-05-19T10:43:29;101594.09;;;15.37;69.85
25510;BME280;13413;52.336;21.200;2023-05-19T10:46:25;101594.02;;;15.37;69.77
25510;BME280;13413;52.336;21.200;2023-05-19T10:49:22;101588.67;;;15.42;69.85
25510;BME280;13413;52.336;21.200;2023-05-19T10:52:23;101589.38;;;15.48;69.94
25510;BME280;13413;52.336;21.200;2023-05-19T10:55:46;101594.70;;;15.55;69.77
25510;BME280;13413;52.336;21.200;2023-05-19T10:58:50;101593.54;;;15.63;69.93
25510;BME280;13413;52.336;21.200;2023-05-19T11:01:45;101594.60;;;15.69;69.77
25510;BME280;13413;52.336;21.200;2023-05-19T11:04:46;101593.84;;;15.68;69.20
25510;BME280;13413;52.336;21.200;2023-05-19T11:07:43;101594.83;;;15.70;69.57
25510;BME280;13413;52.336;21.200;2023-05-19T11:10:37;101596.44;;;15.78;69.54
25510;BME280;13413;52.336;21.200;2023-05-19T11:13:30;101596.08;;;15.78;69.17
25510;BME280;13413;52.336;21.200;2023-05-19T11:16:32;101594.37;;;15.77;69.23
25510;BME280;13413;52.336;21.200;2023-05-19T11:19:30;101594.21;;;15.77;69.15
25510;BME280;13413;52.336;21.200;2023-05-19T11:22:26;101596.70;;;15.83;69.17
25510;BME280;13413;52.336;21.200;2023-05-19T11:25:43;101593.05;;;15.82;68.39
25510;BME280;13413;52.336;21.200;2023-05-19T11:28:38;101598.09;;;15.88;68.70
25510;BME280;13413;52.336;21.200;2023-05-19T11:31:34;101599.19;;;15.94;68.56
25510;BME280;13413;52.336;21.200;2023-05-19T11:34:29;101597.60;;;15.92;68.34
25510;BME280;13413;52.336;21.200;2023-05-19T11:37:21;101597.45;;;15.96;68.74
25510;BME280;13413;52.336;21.200;2023-05-19T11:40:17;101593.48;;;16.03;68.68
25510;BME280;13413;52.336;21.200;2023-05-19T11:43:11;101596.42;;;16.05;68.15
25510;BME280;13413;52.336;21.200;2023-05-19T11:46:05;101594.17;;;16.04;68.30
25510;BME280;13413;52.336;21.200;2023-05-19T11:48:59;101590.92;;;16.09;68.32
25510;BME280;13413;52.336;21.200;2023-05-19T11:51:54;101589.36;;;16.12;68.37
25510;BME280;13413;52.336;21.200;2023-05-19T11:54:47;101591.85;;;16.18;68.27
25510;BME280;13413;52.336;21.200;2023-05-19T11:57:41;101591.01;;;16.19;67.91
25510;BME280;13413;52.336;21.200;2023-05-19T12:00:37;101588.14;;;16.17;67.95
25510;BME280;13413;52.336;21.200;2023-05-19T12:03:31;101588.58;;;16.16;67.51
25510;BME280;13413;52.336;21.200;2023-05-19T12:09:36;101591.80;;;16.15;67.81
25510;BME280;13413;52.336;21.200;2023-05-19T12:12:29;101594.83;;;16.18;67.96
25510;BME280;13413;52.336;21.200;2023-05-19T12:15:22;101596.85;;;16.19;67.73
25510;BME280;13413;52.336;21.200;2023-05-19T12:18:14;101602.93;;;16.18;67.81
25510;BME280;13413;52.336;21.200;2023-05-19T12:21:06;101599.21;;;16.17;67.72
25510;BME280;13413;52.336;21.200;2023-05-19T12:24:00;101599.42;;;16.17;67.64
25510;BME280;13413;52.336;21.200;2023-05-19T12:27:04;101595.17;;;16.20;68.01
25510;BME280;13413;52.336;21.200;2023-05-19T12:29:57;101593.31;;;16.28;67.99
25510;BME280;13413;52.336;21.200;2023-05-19T12:32:52;101590.73;;;16.32;67.74
25510;BME280;13413;52.336;21.200;2023-05-19T12:35:45;101586.77;;;16.36;67.92
25510;BME280;13413;52.336;21.200;2023-05-19T12:38:38;101590.90;;;16.42;67.38
25510;BME280;13413;52.336;21.200;2023-05-19T12:41:31;101590.32;;;16.37;67.27
25510;BME280;13413;52.336;21.200;2023-05-19T12:44:24;101588.73;;;16.35;67.53
25510;BME280;13413;52.336;21.200;2023-05-19T12:47:19;101587.77;;;16.37;67.58
25510;BME280;13413;52.336;21.200;2023-05-19T12:50:12;101585.81;;;16.38;67.49
25510;BME280;13413;52.336;21.200;2023-05-19T12:53:07;101585.87;;;16.39;67.45
25510;BME280;13413;52.336;21.200;2023-05-19T12:56:11;101587.61;;;16.40;67.61
25510;BME280;13413;52.336;21.200;2023-05-19T12:59:04;101584.77;;;16.45;67.70
25510;BME280;13413;52.336;21.200;2023-05-19T13:01:57;101583.89;;;16.50;67.71
25510;BME280;13413;52.336;21.200;2023-05-19T13:04:50;101580.57;;;16.54;67.55
25510;BME280;13413;52.336;21.200;2023-05-19T13:07:53;101585.98;;;16.55;67.48
25510;BME280;13413;52.336;21.200;2023-05-19T13:10:46;101582.89;;;16.57;67.19
25510;BME280;13413;52.336;21.200;2023-05-19T13:13:38;101582.85;;;16.57;67.14
25510;BME280;13413;52.336;21.200;2023-05-19T13:16:31;101585.73;;;16.57;67.24
25510;BME280;13413;52.336;21.200;2023-05-19T13:19:24;101587.38;;;16.56;67.25
25510;BME280;13413;52.336;21.200;2023-05-19T13:22:17;101580.20;;;16.54;67.06
25510;BME280;13413;52.336;21.200;2023-05-19T13:25:10;101575.95;;;16.53;67.19
25510;BME280;13413;52.336;21.200;2023-05-19T13:28:03;101577.02;;;16.53;67.22
25510;BME280;13413;52.336;21.200;2023-05-19T13:30:57;101577.77;;;16.55;67.27
25510;BME280;13413;52.336;21.200;2023-05-19T13:33:50;101575.66;;;16.56;67.24
25510;BME280;13413;52.336;21.200;2023-05-19T13:36:43;101574.91;;;16.56;67.08
25510;BME280;13413;52.336;21.200;2023-05-19T13:39:36;101579.33;;;16.53;67.10
25510;BME280;13413;52.336;21.200;2023-05-19T13:42:29;101585.92;;;16.51;67.08
25510;BME280;13413;52.336;21.200;2023-05-19T13:45:23;101586.20;;;16.50;67.21
25510;BME280;13413;52.336;21.200;2023-05-19T13:48:16;101583.33;;;16.49;67.29
25510;BME280;13413;52.336;21.200;2023-05-19T13:51:09;101581.67;;;16.50;67.32
25510;BME280;13413;52.336;21.200;2023-05-19T13:54:01;101578.86;;;16.53;67.31
25510;BME280;13413;52.336;21.200;2023-05-19T14:03:16;101573.90;;;16.54;67.30
25510;BME280;13413;52.336;21.200;2023-05-19T14:06:10;101573.32;;;16.54;67.32
25510;BME280;13413;52.336;21.200;2023-05-19T14:09:04;101575.64;;;16.54;67.31
25510;BME280;13413;52.336;21.200;2023-05-19T14:11:58;101574.16;;;16.55;67.34
25510;BME280;13413;52.336;21.200;2023-05-19T14:14:53;101574.06;;;16.54;67.11
25510;BME280;13413;52.336;21.200;2023-05-19T14:17:46;101575.20;;;16.52;67.31
25510;BME280;13413;52.336;21.200;2023-05-19T14:20:39;101575.77;;;16.55;67.48
25510;BME280;13413;52.336;21.200;2023-05-19T14:23:34;101581.45;;;16.58;67.36
25510;BME280;13413;52.336;21.200;2023-05-19T14:26:28;101573.95;;;16.61;67.30
25510;BME280;13413;52.336;21.200;2023-05-19T14:29:22;101577.99;;;16.64;67.41
25510;BME280;13413;52.336;21.200;2023-05-19T14:32:16;101578.89;;;16.67;67.45
25510;BME280;13413;52.336;21.200;2023-05-19T14:35:10;101577.75;;;16.68;67.39
25510;BME280;13413;52.336;21.200;2023-05-19T14:38:04;101582.59;;;16.70;67.45
25510;BME280;13413;52.336;21.200;2023-05-19T14:40:58;101584.60;;;16.71;67.28
25510;BME280;13413;52.336;21.200;2023-05-19T14:43:51;101578.67;;;16.73;67.29
25510;BME280;13413;52.336;21.200;2023-05-19T14:46:46;101579.02;;;16.77;67.48
25510;BME280;13413;52.336;21.200;2023-05-19T14:49:40;101582.17;;;16.82;67.46
25510;BME280;13413;52.336;21.200;2023-05-19T14:52:33;101583.01;;;16.85;67.37
25510;BME280;13413;52.336;21.200;2023-05-19T14:55:28;101574.59;;;16.85;67.24
25510;BME280;13413;52.336;21.200;2023-05-19T14:58:22;101570.29;;;16.84;67.33
25510;BME280;13413;52.336;21.200;2023-05-19T15:01:16;101570.49;;;16.84;67.50
25510;BME280;13413;52.336;21.200;2023-05-19T15:04:10;101574.84;;;16.82;67.43
25510;BME280;13413;52.336;21.200;2023-05-19T15:07:04;101570.85;;;16.81;67.51
25510;BME280;13413;52.336;21.200;2023-05-19T15:09:58;101573.60;;;16.82;67.54
25510;BME280;13413;52.336;21.200;2023-05-19T15:12:51;101581.26;;;16.81;67.47
25510;BME280;13413;52.336;21.200;2023-05-19T15:15:46;101588.58;;;16.82;67.66
25510;BME280;13413;52.336;21.200;2023-05-19T15:18:40;101590.67;;;16.84;67.58
25510;BME280;13413;52.336;21.200;2023-05-19T15:21:34;101590.77;;;16.83;67.59
25510;BME280;13413;52.336;21.200;2023-05-19T15:24:28;101592.25;;;16.86;67.61
25510;BME280;13413;52.336;21.200;2023-05-19T15:27:23;101590.94;;;16.86;67.57
25510;BME280;13413;52.336;21.200;2023-05-19T15:30:16;101592.38;;;16.86;67.48
25510;BME280;13413;52.336;21.200;2023-05-19T15:33:11;101589.34;;;16.83;67.42
25510;BME280;13413;52.336;21.200;2023-05-19T15:36:06;101585.02;;;16.82;67.44
25510;BME280;13413;52.336;21.200;2023-05-19T15:39:01;101586.60;;;16.81;67.46
25510;BME280;13413;52.336;21.200;2023-05-19T15:41:54;101585.20;;;16.80;67.54
25510;BME280;13413;52.336;21.200;2023-05-19T15:44:49;101579.97;;;16.79;67.64